Time;durP1;ratioP1;P1;durP2;ratioP2;P2;SDS_P1;SDS_P2;PMS_P1;PMS_P2;Temp;Humidity;BMP_temperature;BMP_pressure;BME280_temperature;BME280_humidity;BME280_pressure;Samples;Min_cycle;Max_cycle;Signal;HPM_P1;HPM_P2
2021/03/25 00:01:00;;;;;;;100.30;52.78;;;;;;;4.06;93.70;101238.22;5007546;28;20057;-69
2021/03/25 00:03:27;;;;;;;102.25;52.78;;;;;;;4.02;94.16;101232.19;5026112;28;20073;-69
2021/03/25 00:05:54;;;;;;;93.57;50.55;;;;;;;4.17;94.30;101235.34;5011748;28;20053;-70
2021/03/25 00:08:25;;;;;;;105.68;52.05;;;;;;;4.27;93.50;101231.63;5035304;28;20053;-70
2021/03/25 00:10:52;;;;;;;94.88;50.67;;;;;;;4.32;93.02;101233.25;5036627;28;20057;-70
2021/03/25 00:13:19;;;;;;;103.20;54.50;;;;;;;4.17;93.64;101230.13;4995096;28;20065;-70
2021/03/25 00:15:46;;;;;;;99.03;54.67;;;;;;;4.05;94.15;101224.31;5011469;28;20058;-68
2021/03/25 00:18:14;;;;;;;110.78;55.35;;;;;;;4.00;94.60;101230.50;5002230;28;20059;-67
2021/03/25 00:20:41;;;;;;;103.25;53.65;;;;;;;3.95;94.59;101228.00;5030945;28;20536;-69
2021/03/25 00:23:09;;;;;;;104.72;54.42;;;;;;;3.96;95.20;101223.66;5038619;28;20096;-69
2021/03/25 00:25:38;;;;;;;110.72;54.05;;;;;;;3.97;95.00;101222.78;5022081;28;20049;-69
2021/03/25 00:28:05;;;;;;;96.97;51.88;;;;;;;4.04;94.96;101216.53;5023374;28;20053;-68
2021/03/25 00:30:32;;;;;;;100.30;52.20;;;;;;;4.10;94.08;101208.59;5015197;28;20061;-69
2021/03/25 00:33:00;;;;;;;94.72;51.92;;;;;;;4.09;94.02;101211.22;5000341;28;20049;-69
2021/03/25 00:35:28;;;;;;;93.57;50.70;;;;;;;4.12;93.88;101206.78;4995251;28;20053;-70
2021/03/25 00:37:55;;;;;;;93.40;51.25;;;;;;;4.28;93.14;101208.16;5029437;28;20585;-69
2021/03/25 00:40:36;;;;;;;100.85;51.72;;;;;;;4.39;92.96;101202.69;5009791;28;20485;-69
2021/03/25 00:43:05;;;;;;;98.82;49.45;;;;;;;4.41;92.87;101200.88;5015280;28;20053;-70
2021/03/25 00:45:40;;;;;;;100.47;53.58;;;;;;;4.49;92.11;101196.34;5035327;28;20157;-69
2021/03/25 00:48:08;;;;;;;99.22;53.40;;;;;;;4.51;92.05;101202.38;5011921;28;20246;-69
2021/03/25 00:50:38;;;;;;;88.95;48.42;;;;;;;4.59;91.00;101202.19;5017819;28;20057;-69
2021/03/25 00:53:07;;;;;;;95.63;50.83;;;;;;;4.50;91.30;101205.91;5012079;28;20160;-69
2021/03/25 00:55:34;;;;;;;114.25;57.60;;;;;;;4.56;90.52;101200.53;4995857;28;20050;-68
2021/03/25 00:58:01;;;;;;;146.20;74.63;;;;;;;4.53;91.35;101202.34;5014489;28;20042;-69
2021/03/25 01:00:31;;;;;;;137.52;70.60;;;;;;;4.66;90.24;101200.28;5029396;28;20120;-70
2021/03/25 01:02:57;;;;;;;122.53;64.80;;;;;;;4.47;90.83;101199.91;5018294;28;20041;-69
2021/03/25 01:05:26;;;;;;;134.75;71.00;;;;;;;4.38;91.48;101200.97;4996669;28;20148;-70
2021/03/25 01:07:52;;;;;;;185.40;85.30;;;;;;;4.38;90.84;101200.97;5029044;28;20045;-70
2021/03/25 01:10:22;;;;;;;135.20;67.03;;;;;;;4.41;91.11;101197.41;5031087;28;20056;-69
2021/03/25 01:12:49;;;;;;;131.73;64.95;;;;;;;4.38;90.70;101202.72;5013261;28;20053;-70
2021/03/25 01:15:16;;;;;;;115.13;57.85;;;;;;;4.49;90.96;101200.69;5028562;28;20045;-70
2021/03/25 01:17:50;;;;;;;101.68;53.60;;;;;;;4.54;91.07;101197.06;5009721;28;20523;-69
2021/03/25 01:20:23;;;;;;;104.25;55.58;;;;;;;4.69;89.49;101202.84;5011975;28;20053;-70
2021/03/25 01:22:49;;;;;;;98.60;52.35;;;;;;;4.64;89.61;101197.72;5022811;28;20417;-70
2021/03/25 01:25:17;;;;;;;108.53;53.88;;;;;;;4.48;89.98;101202.47;5004367;28;20049;-70
2021/03/25 01:27:44;;;;;;;96.60;51.15;;;;;;;4.37;91.06;101201.88;5017027;28;20045;-69
2021/03/25 01:30:12;;;;;;;99.00;53.05;;;;;;;4.24;90.84;101200.44;5027020;28;20053;-71
2021/03/25 01:32:38;;;;;;;112.13;56.72;;;;;;;4.12;92.19;101208.53;5010381;28;20045;-70
2021/03/25 01:35:08;;;;;;;107.45;54.33;;;;;;;4.03;91.72;101205.25;5010998;28;20045;-70
2021/03/25 01:37:38;;;;;;;97.72;52.15;;;;;;;4.07;92.68;101208.66;5012190;28;20059;-70
2021/03/25 01:40:29;;;;;;;98.63;53.65;;;;;;;3.97;92.88;101205.41;5011024;28;20049;-69
2021/03/25 01:43:31;;;;;;;99.15;49.75;;;;;;;3.96;93.27;101203.69;5017071;28;20057;-70
2021/03/25 01:46:01;;;;;;;108.90;53.25;;;;;;;3.81;92.75;101206.63;4995552;28;20045;-70
2021/03/25 01:48:33;;;;;;;95.85;51.13;;;;;;;3.68;93.65;101202.56;4999120;28;20071;-70
2021/03/25 01:51:23;;;;;;;115.55;52.22;;;;;;;3.63;94.49;101197.44;4992203;28;20111;-69
2021/03/25 01:54:26;;;;;;;105.75;51.60;;;;;;;3.47;94.54;101194.31;5026290;28;20038;-68
2021/03/25 01:57:14;;;;;;;107.10;52.67;;;;;;;3.44;95.00;101193.53;4991838;28;20037;-69
2021/03/25 02:00:02;;;;;;;104.72;53.28;;;;;;;3.60;94.72;101197.50;5026577;28;20533;-69
2021/03/25 02:02:40;;;;;;;101.32;49.35;;;;;;;3.48;94.80;101193.44;5025747;28;20563;-69
2021/03/25 02:05:17;;;;;;;107.82;51.47;;;;;;;3.37;95.10;101192.78;5014349;28;20049;-69
2021/03/25 02:08:21;;;;;;;100.10;51.47;;;;;;;3.25;96.05;101191.28;5022131;28;20069;-69
2021/03/25 02:11:12;;;;;;;107.90;52.38;;;;;;;3.16;96.64;101183.66;5028902;28;20052;-70
2021/03/25 02:13:48;;;;;;;102.97;51.33;;;;;;;3.10;97.15;101181.16;5005843;28;20710;-69
2021/03/25 02:16:22;;;;;;;104.40;52.13;;;;;;;3.07;97.49;101183.00;5018454;28;20389;-70
2021/03/25 02:18:59;;;;;;;95.80;51.93;;;;;;;3.10;97.35;101175.09;5021602;28;20053;-70
2021/03/25 02:21:37;;;;;;;103.82;51.75;;;;;;;3.20;97.18;101185.31;5017368;28;20066;-68
2021/03/25 02:24:23;;;;;;;104.18;53.47;;;;;;;3.31;96.70;101177.28;5038834;28;20065;-69
2021/03/25 02:27:05;;;;;;;101.27;50.27;;;;;;;3.28;96.21;101180.81;5002787;28;20101;-67
2021/03/25 02:30:05;;;;;;;99.05;49.38;;;;;;;3.27;96.46;101173.88;4991324;28;20050;-67
2021/03/25 02:32:36;;;;;;;103.88;49.95;;;;;;;3.18;96.24;101168.88;4997569;28;20061;-70
2021/03/25 02:35:09;;;;;;;99.97;49.15;;;;;;;3.06;96.97;101171.69;5011603;28;20531;-70
2021/03/25 02:37:38;;;;;;;111.85;52.78;;;;;;;3.04;97.20;101163.94;5011302;28;20087;-69
2021/03/25 02:40:08;;;;;;;101.13;50.00;;;;;;;3.01;97.77;101171.78;4993995;28;20049;-69
2021/03/25 02:46:51;;;;;;;110.47;51.15;;;;;;;2.97;98.43;101175.38;5020985;28;20146;-70
2021/03/25 02:49:20;;;;;;;107.30;52.42;;;;;;;2.92;98.77;101164.16;4999643;28;20547;-70
2021/03/25 02:51:53;;;;;;;111.85;53.22;;;;;;;2.86;98.78;101176.44;5014077;28;20037;-71
2021/03/25 02:54:20;;;;;;;110.70;52.53;;;;;;;2.85;99.18;101175.59;5012775;28;20628;-70
2021/03/25 02:56:49;;;;;;;103.68;51.97;;;;;;;2.94;98.64;101174.56;5012667;28;20050;-71
2021/03/25 02:59:28;;;;;;;108.85;51.30;;;;;;;3.17;98.35;101174.13;5008030;28;20092;-70
2021/03/25 03:01:58;;;;;;;99.88;51.20;;;;;;;3.13;97.71;101178.50;4991428;28;20049;-69
2021/03/25 03:04:28;;;;;;;114.45;52.38;;;;;;;3.01;97.87;101173.53;4992922;28;20059;-68
2021/03/25 03:07:02;;;;;;;102.85;48.45;;;;;;;2.96;98.40;101181.44;5013483;28;20071;-70
2021/03/25 03:09:36;;;;;;;117.03;53.38;;;;;;;3.08;98.65;101175.16;5050740;28;20073;-70
2021/03/25 03:12:04;;;;;;;98.80;49.17;;;;;;;3.15;97.77;101171.56;5013078;28;20045;-70
2021/03/25 03:14:36;;;;;;;106.65;51.97;;;;;;;3.07;97.80;101173.44;5012190;28;20062;-69
2021/03/25 03:17:11;;;;;;;104.63;51.00;;;;;;;3.11;97.77;101174.22;4989736;28;20541;-70
2021/03/25 03:19:50;;;;;;;100.40;50.60;;;;;;;3.21;97.42;101174.03;5028884;28;20057;-69
2021/03/25 03:22:17;;;;;;;102.18;49.10;;;;;;;3.09;98.12;101178.59;5020484;28;20059;-69
2021/03/25 03:24:47;;;;;;;111.07;51.15;;;;;;;2.99;98.04;101178.78;5029481;28;20056;-69
2021/03/25 03:27:43;;;;;;;110.70;52.22;;;;;;;2.90;98.30;101178.09;5017341;28;20045;-69
2021/03/25 03:30:20;;;;;;;108.00;51.92;;;;;;;2.82;99.38;101180.81;5020287;28;20144;-70
2021/03/25 03:32:54;;;;;;;106.78;48.92;;;;;;;2.85;99.83;101182.53;5013508;28;20060;-70
2021/03/25 03:35:38;;;;;;;103.60;50.33;;;;;;;3.13;98.44;101180.25;5014387;28;20037;-70
2021/03/25 03:38:11;;;;;;;107.97;50.38;;;;;;;3.00;98.29;101182.22;4997234;28;20478;-70
2021/03/25 03:40:40;;;;;;;109.95;51.03;;;;;;;2.98;98.65;101182.28;5002985;28;20117;-70
2021/03/25 03:43:12;;;;;;;105.68;49.75;;;;;;;2.95;98.74;101178.88;5012517;28;20060;-69
2021/03/25 03:45:50;;;;;;;113.82;52.78;;;;;;;3.02;98.80;101180.47;5016629;28;20124;-70
2021/03/25 03:48:44;;;;;;;101.57;51.50;;;;;;;2.98;98.48;101181.41;5011058;28;20045;-70
2021/03/25 03:51:26;;;;;;;106.72;51.15;;;;;;;2.83;98.81;101179.09;5010239;28;20056;-70
2021/03/25 03:54:00;;;;;;;99.45;50.60;;;;;;;2.73;99.63;101181.84;5003071;28;20513;-69
2021/03/25 03:56:38;;;;;;;103.57;48.45;;;;;;;2.86;99.48;101182.50;5003422;28;20112;-71
2021/03/25 03:59:10;;;;;;;107.97;50.15;;;;;;;2.76;99.28;101174.00;5008269;28;20045;-70
2021/03/25 04:01:44;;;;;;;114.07;52.10;;;;;;;2.68;99.94;101182.81;5014399;28;20572;-69
2021/03/25 04:04:17;;;;;;;105.22;51.70;;;;;;;2.66;100.00;101182.00;4996955;28;20049;-69
2021/03/25 04:06:50;;;;;;;120.07;51.83;;;;;;;2.58;100.00;101184.72;5009842;28;20077;-71
2021/03/25 04:09:22;;;;;;;115.13;53.28;;;;;;;2.52;100.00;101183.09;4996601;28;20069;-70
2021/03/25 04:11:58;;;;;;;110.80;52.78;;;;;;;2.52;100.00;101185.69;5028954;28;20618;-69
2021/03/25 04:14:28;;;;;;;102.97;49.90;;;;;;;2.78;100.00;101184.38;4998200;28;20042;-68
2021/03/25 04:16:57;;;;;;;99.20;50.50;;;;;;;2.83;99.49;101179.94;4992645;28;20138;-68
2021/03/25 04:19:43;;;;;;;108.88;51.38;;;;;;;2.81;98.76;101188.66;5029172;28;20128;-69
2021/03/25 04:22:15;;;;;;;109.43;49.50;;;;;;;2.72;99.54;101189.69;5010474;28;20046;-69
2021/03/25 04:24:57;;;;;;;95.28;49.30;;;;;;;2.82;98.94;101193.81;5013408;28;20561;-69
2021/03/25 04:27:28;;;;;;;102.13;51.20;;;;;;;2.74;99.01;101190.50;4996625;28;20531;-68
2021/03/25 04:29:57;;;;;;;111.43;52.35;;;;;;;2.60;99.46;101184.69;5017824;28;20056;-69
2021/03/25 04:32:25;;;;;;;105.93;51.53;;;;;;;2.68;100.00;101191.47;5027362;28;20148;-70
2021/03/25 04:34:52;;;;;;;103.95;50.38;;;;;;;2.76;99.64;101193.94;5013342;28;20064;-69
2021/03/25 04:37:20;;;;;;;111.95;50.80;;;;;;;2.73;99.58;101192.25;5014973;28;20132;-69
2021/03/25 04:39:48;;;;;;;116.32;50.78;;;;;;;2.53;99.81;101195.19;5003038;28;20045;-69
2021/03/25 04:42:15;;;;;;;114.88;52.63;;;;;;;2.44;100.00;101195.34;5001443;28;20041;-70
2021/03/25 04:44:49;;;;;;;107.50;52.78;;;;;;;2.50;100.00;101187.44;5029903;28;20049;-70
2021/03/25 04:47:25;;;;;;;107.13;51.70;;;;;;;2.44;100.00;101192.75;5009587;28;20046;-68
2021/03/25 04:50:04;;;;;;;105.13;49.70;;;;;;;2.50;100.00;101189.19;4992030;28;20056;-69
2021/03/25 04:52:33;;;;;;;113.47;53.22;;;;;;;2.45;100.00;101186.66;5019658;28;20541;-69
2021/03/25 04:55:14;;;;;;;106.07;50.63;;;;;;;2.48;100.00;101198.75;4999163;28;20065;-69
2021/03/25 04:58:01;;;;;;;108.93;51.75;;;;;;;2.58;100.00;101196.88;5033541;28;20050;-70
2021/03/25 05:00:47;;;;;;;99.15;49.05;;;;;;;2.65;100.00;101198.47;4981845;28;20049;-70
2021/03/25 05:03:23;;;;;;;96.88;47.72;;;;;;;2.97;98.86;101203.09;5014946;28;20084;-69
2021/03/25 05:05:54;;;;;;;109.72;48.22;;;;;;;2.93;99.20;101197.09;5020439;28;20057;-69
2021/03/25 05:08:23;;;;;;;101.90;49.10;;;;;;;2.93;98.26;101202.31;5020018;28;20068;-71
2021/03/25 05:10:58;;;;;;;109.63;49.30;;;;;;;2.92;98.42;101187.56;5006309;28;20073;-69
2021/03/25 05:13:28;;;;;;;103.03;50.28;;;;;;;2.86;99.00;101194.63;4997605;23;20541;-79
2021/03/25 05:16:07;;;;;;;103.38;48.13;;;;;;;2.98;98.37;101194.41;4945900;28;20078;-78
2021/03/25 05:18:36;;;;;;;103.45;49.58;;;;;;;3.06;97.72;101184.72;4979732;28;20051;-77
2021/03/25 05:21:10;;;;;;;102.25;47.00;;;;;;;3.08;97.47;101189.91;4983061;28;20030;-77
2021/03/25 05:23:41;;;;;;;102.03;49.00;;;;;;;3.23;97.34;101185.25;5008923;28;20054;-76
2021/03/25 05:26:23;;;;;;;103.10;49.03;;;;;;;3.23;97.24;101189.59;5010341;28;20077;-77
2021/03/25 05:28:53;;;;;;;99.80;47.38;;;;;;;3.30;96.31;101196.41;4983651;28;20118;-80
2021/03/25 05:31:20;;;;;;;102.50;47.97;;;;;;;3.37;95.28;101197.97;4972111;28;20058;-80
2021/03/25 05:33:51;;;;;;;104.15;50.85;;;;;;;3.43;95.46;101205.69;4948839;28;20411;-82
2021/03/25 05:36:19;;;;;;;96.18;45.83;;;;;;;3.50;95.08;101207.25;4990467;28;20137;-79
2021/03/25 05:38:46;;;;;;;91.50;45.97;;;;;;;3.58;95.10;101203.66;4977813;28;20054;-81
2021/03/25 05:41:23;;;;;;;102.38;45.78;;;;;;;3.71;94.68;101207.72;4985760;28;20054;-78
2021/03/25 05:44:25;;;;;;;96.65;47.55;;;;;;;3.81;94.05;101207.47;4982032;28;20052;-79
2021/03/25 05:47:10;;;;;;;92.55;46.47;;;;;;;3.96;92.94;101205.41;5006008;28;20077;-77
2021/03/25 05:50:01;;;;;;;96.38;47.22;;;;;;;4.15;91.24;101206.72;5007947;28;20059;-78
2021/03/25 05:52:42;;;;;;;93.60;47.20;;;;;;;4.31;90.58;101204.59;5014601;28;20061;-79
2021/03/25 05:55:34;;;;;;;94.05;44.47;;;;;;;4.43;90.21;101204.31;5004616;28;20050;-79
2021/03/25 05:58:38;;;;;;;87.78;43.17;;;;;;;4.77;88.80;101209.56;4999603;28;20046;-80
2021/03/25 06:01:28;;;;;;;95.07;46.22;;;;;;;5.24;85.82;101217.03;5003811;28;20093;-78
2021/03/25 06:04:00;;;;;;;89.20;43.63;;;;;;;5.59;83.95;101214.28;4998497;28;20121;-79
2021/03/25 06:06:42;;;;;;;83.38;43.53;;;;;;;5.94;82.76;101211.53;5001202;28;20122;-78
2021/03/25 06:09:17;;;;;;;81.88;40.53;;;;;;;6.50;79.67;101204.53;4980639;28;20061;-79
2021/03/25 06:12:11;;;;;;;79.10;43.33;;;;;;;6.88;77.69;101204.16;5006923;28;20126;-77
2021/03/25 06:15:00;;;;;;;75.82;40.88;;;;;;;7.13;75.83;101214.63;4984986;28;20085;-80
2021/03/25 06:17:42;;;;;;;78.65;42.15;;;;;;;7.36;74.75;101219.91;4993712;28;20042;-79
2021/03/25 06:20:15;;;;;;;80.70;40.70;;;;;;;7.91;71.98;101215.22;4975611;28;20236;-80
2021/03/25 06:23:08;;;;;;;79.00;43.13;;;;;;;8.49;70.56;101215.56;4961624;28;20501;-77
2021/03/25 06:25:58;;;;;;;78.72;42.22;;;;;;;8.84;68.03;101215.91;4983529;28;20117;-78
2021/03/25 06:28:29;;;;;;;77.90;42.13;;;;;;;9.38;65.43;101225.78;4991807;28;20056;-78
2021/03/25 06:31:21;;;;;;;76.63;44.05;;;;;;;9.66;65.37;101221.91;4987054;28;20101;-79
2021/03/25 06:33:54;;;;;;;80.95;42.97;;;;;;;10.09;63.53;101233.09;4990385;28;20101;-78
2021/03/25 06:36:34;;;;;;;69.32;42.45;;;;;;;10.50;61.60;101227.66;5003737;28;20066;-78
2021/03/25 06:39:01;;;;;;;77.50;42.58;;;;;;;11.55;58.84;101221.38;5001028;28;20329;-78
2021/03/25 06:41:42;;;;;;;79.90;46.03;;;;;;;11.82;56.94;101224.31;4995617;28;20042;-80
2021/03/25 06:44:20;;;;;;;76.80;42.88;;;;;;;12.32;55.15;101218.03;4980295;28;20184;-81
2021/03/25 06:47:32;;;;;;;79.60;45.90;;;;;;;12.60;54.21;101220.78;4980685;28;20082;-80
2021/03/25 06:50:00;;;;;;;70.90;42.42;;;;;;;13.01;52.32;101227.22;4955124;28;20106;-79
2021/03/25 06:52:37;;;;;;;67.95;43.20;;;;;;;13.54;51.61;101226.66;5002138;28;20054;-79
2021/03/25 06:55:16;;;;;;;76.50;44.08;;;;;;;13.90;49.58;101226.16;5001966;28;20108;-81
2021/03/25 06:57:55;;;;;;;71.90;41.50;;;;;;;13.50;51.08;101227.78;5000126;28;20045;-78
2021/03/25 07:00:24;;;;;;;70.13;41.65;;;;;;;14.20;49.40;101235.75;5016214;23;20051;-76
2021/03/25 07:02:52;;;;;;;77.20;43.03;;;;;;;14.16;49.26;101237.72;5039585;28;20132;-75
2021/03/25 07:05:25;;;;;;;73.68;43.95;;;;;;;15.03;47.01;101233.78;5022568;28;20074;-74
2021/03/25 07:08:09;;;;;;;76.93;44.50;;;;;;;15.28;46.46;101237.44;5026765;28;20089;-76
2021/03/25 07:10:36;;;;;;;59.88;41.15;;;;;;;16.18;44.29;101231.91;5019243;28;20034;-76
2021/03/25 07:13:05;;;;;;;69.22;42.83;;;;;;;16.52;42.95;101234.72;5043654;28;20099;-75
2021/03/25 07:15:47;;;;;;;69.13;44.97;;;;;;;16.45;43.04;101237.00;5019065;28;20044;-74
2021/03/25 07:18:28;;;;;;;67.60;42.22;;;;;;;16.36;43.30;101242.16;5021405;28;20104;-74
2021/03/25 07:21:28;;;;;;;58.13;41.58;;;;;;;17.52;40.27;101241.34;5027187;28;20084;-76
2021/03/25 07:23:58;;;;;;;72.35;44.55;;;;;;;17.04;41.46;101249.47;5024363;28;20059;-76
2021/03/25 07:26:32;;;;;;;70.40;43.85;;;;;;;17.46;40.74;101258.59;5012062;28;20053;-75
2021/03/25 07:29:16;;;;;;;72.60;44.20;;;;;;;18.00;39.83;101254.41;5024998;28;20057;-75
2021/03/25 07:32:14;;;;;;;75.60;44.38;;;;;;;17.39;40.73;101254.75;5030966;28;20075;-75
2021/03/25 07:34:44;;;;;;;73.75;46.30;;;;;;;17.33;40.45;101257.00;5022978;28;20083;-75
2021/03/25 07:37:14;;;;;;;72.10;45.35;;;;;;;17.32;40.65;101253.50;5019832;28;20052;-76
2021/03/25 07:39:50;;;;;;;65.28;42.90;;;;;;;16.79;41.09;101257.59;5026554;28;20037;-75
2021/03/25 07:42:31;;;;;;;75.40;44.75;;;;;;;18.56;38.25;101250.78;5026496;28;20517;-75
2021/03/25 07:45:19;;;;;;;72.03;45.25;;;;;;;18.83;37.43;101248.50;5022781;28;20099;-76
2021/03/25 07:47:47;;;;;;;76.88;45.03;;;;;;;17.81;39.45;101263.03;5026665;28;20076;-76
2021/03/25 07:50:28;;;;;;;74.70;46.28;;;;;;;17.15;41.21;101259.28;5044542;28;20076;-76
2021/03/25 07:52:56;;;;;;;67.72;43.13;;;;;;;18.02;39.90;101260.47;5012555;28;20045;-75
2021/03/25 07:55:26;;;;;;;84.55;46.20;;;;;;;19.97;35.62;101252.94;5023717;28;20129;-76
2021/03/25 07:57:53;;;;;;;79.10;43.50;;;;;;;18.36;38.43;101257.72;5027311;28;20543;-74
2021/03/25 08:00:35;;;;;;;73.88;46.67;;;;;;;16.26;42.56;101263.22;4998919;28;20068;-72
2021/03/25 08:03:40;;;;;;;66.15;42.63;;;;;;;18.26;38.77;101260.31;5024047;28;20050;-73
2021/03/25 08:06:23;;;;;;;77.32;45.03;;;;;;;17.90;39.50;101259.63;5018592;28;20103;-73
2021/03/25 08:09:10;;;;;;;87.90;44.35;;;;;;;18.47;38.26;101263.03;5020379;28;20060;-74
2021/03/25 08:11:59;;;;;;;72.43;44.10;;;;;;;18.44;38.07;101263.28;5008441;28;20051;-74
2021/03/25 08:14:31;;;;;;;69.60;44.00;;;;;;;18.02;39.02;101264.97;5015938;28;20059;-74
2021/03/25 08:17:20;;;;;;;77.45;46.63;;;;;;;18.11;39.29;101259.72;5014602;28;20156;-74
2021/03/25 08:20:15;;;;;;;72.45;43.65;;;;;;;19.96;35.75;101259.28;5005540;28;20052;-74
2021/03/25 08:23:11;;;;;;;74.30;43.53;;;;;;;18.07;38.24;101263.59;5047726;28;20535;-74
2021/03/25 08:25:43;;;;;;;72.10;44.25;;;;;;;18.98;37.44;101262.38;5027288;28;20059;-75
2021/03/25 08:28:13;;;;;;;67.82;44.72;;;;;;;20.72;34.17;101263.09;5021441;28;20637;-72
2021/03/25 08:30:49;;;;;;;70.95;45.67;;;;;;;21.07;33.21;101258.13;5035228;28;20068;-74
2021/03/25 08:33:38;;;;;;;80.88;44.17;;;;;;;20.77;33.27;101259.16;5030235;28;20104;-73
2021/03/25 08:36:23;;;;;;;74.18;45.17;;;;;;;21.20;32.71;101262.19;5030257;28;20523;-74
2021/03/25 08:38:59;;;;;;;67.15;43.78;;;;;;;20.34;33.88;101265.69;5045844;28;20538;-74
2021/03/25 08:41:29;;;;;;;74.03;47.05;;;;;;;19.77;35.27;101261.84;5044433;28;20064;-73
2021/03/25 08:44:12;;;;;;;73.20;46.78;;;;;;;19.80;35.24;101264.28;5021488;28;21004;-72
2021/03/25 08:46:56;;;;;;;67.65;43.38;;;;;;;20.00;35.05;101260.72;5029573;28;20064;-74
2021/03/25 08:49:28;;;;;;;71.60;44.75;;;;;;;20.78;33.90;101260.84;5007825;28;20120;-74
2021/03/25 08:51:56;;;;;;;66.13;45.00;;;;;;;18.68;37.16;101261.25;5033154;28;20053;-73
2021/03/25 08:54:35;;;;;;;76.80;47.30;;;;;;;17.58;39.41;101255.97;5000839;28;20760;-73
2021/03/25 08:57:07;;;;;;;77.32;44.75;;;;;;;16.47;41.99;101260.78;5043201;28;20125;-73
2021/03/25 08:59:41;;;;;;;73.78;44.30;;;;;;;16.54;41.87;101256.75;5004340;28;20128;-73
2021/03/25 09:02:26;;;;;;;75.68;47.00;;;;;;;16.50;42.45;101254.41;5014686;28;20076;-73
2021/03/25 09:05:25;;;;;;;74.68;44.58;;;;;;;16.09;43.26;101258.28;5008955;28;20143;-73
2021/03/25 09:07:52;;;;;;;;;;;;;;;15.87;44.12;101267.78;5034157;28;20040;-73
2021/03/25 09:10:25;;;;;;;76.78;45.00;;;;;;;15.50;45.14;101264.19;5014480;28;20419;-73
2021/03/25 09:12:52;;;;;;;73.13;45.97;;;;;;;15.73;45.19;101269.72;5036021;28;20071;-73
2021/03/25 09:15:20;;;;;;;86.28;46.15;;;;;;;16.08;44.40;101270.72;5026934;28;20059;-75
2021/03/25 09:18:08;;;;;;;85.28;47.10;;;;;;;15.59;45.21;101266.19;5046588;28;20124;-74
2021/03/25 09:20:39;;;;;;;83.53;49.28;;;;;;;15.06;45.81;101272.53;5006763;28;20738;-75
2021/03/25 09:23:28;;;;;;;85.80;46.13;;;;;;;15.15;46.36;101267.44;4994550;28;20037;-74
2021/03/25 09:25:56;;;;;;;77.00;43.95;;;;;;;14.84;46.92;101262.50;5019174;28;20060;-73
2021/03/25 09:28:24;;;;;;;81.20;47.47;;;;;;;15.20;46.58;101265.31;5026679;28;20039;-72
2021/03/25 09:30:53;;;;;;;85.20;48.35;;;;;;;15.68;46.62;101272.69;5040970;28;20048;-71
2021/03/25 09:33:52;;;;;;;75.68;45.97;;;;;;;15.61;45.59;101264.28;5037066;28;20055;-70
2021/03/25 09:36:18;;;;;;;81.82;46.47;;;;;;;16.01;44.83;101258.81;5035924;28;20057;-74
2021/03/25 09:38:48;;;;;;;81.53;47.35;;;;;;;15.65;45.79;101257.81;5021818;28;20053;-73
2021/03/25 09:41:24;;;;;;;79.50;46.45;;;;;;;15.68;45.65;101257.63;5015822;28;20061;-73
2021/03/25 09:44:09;;;;;;;84.65;46.00;;;;;;;16.03;45.03;101248.09;5018533;28;20053;-71
2021/03/25 09:46:49;;;;;;;81.93;47.25;;;;;;;16.13;45.01;101250.00;5037008;28;20063;-72
2021/03/25 09:49:27;;;;;;;76.50;45.50;;;;;;;16.69;43.96;101244.97;5013703;28;20045;-72
2021/03/25 09:52:06;;;;;;;85.63;46.47;;;;;;;15.61;45.75;101248.34;5025648;28;20045;-71
2021/03/25 09:54:37;;;;;;;81.07;46.78;;;;;;;15.42;46.30;101250.59;5037758;28;20051;-70
2021/03/25 09:57:28;;;;;;;78.63;46.55;;;;;;;15.66;45.52;101245.41;5047416;28;20087;-72
2021/03/25 09:59:55;;;;;;;81.93;45.65;;;;;;;16.23;45.03;101250.16;5018569;28;20113;-71
2021/03/25 10:02:40;;;;;;;80.70;45.25;;;;;;;16.28;44.04;101255.16;5041105;28;20527;-72
2021/03/25 10:05:30;;;;;;;79.65;45.58;;;;;;;15.89;44.76;101259.69;5034682;28;20119;-71
2021/03/25 10:11:54;;;;;;;83.07;44.55;;;;;;;16.31;44.52;101250.47;5037765;28;19982;-71
2021/03/25 10:14:49;;;;;;;75.20;46.10;;;;;;;16.38;44.03;101250.84;5032151;28;20071;-72
2021/03/25 10:17:47;;;;;;;82.30;47.15;;;;;;;15.89;44.76;101254.38;5025440;28;20042;-72
2021/03/25 10:20:57;;;;;;;72.68;45.03;;;;;;;16.30;44.26;101258.53;5029280;28;20033;-73
2021/03/25 10:23:30;;;;;;;75.95;44.30;;;;;;;16.03;44.67;101256.06;5023440;28;20057;-73
2021/03/25 10:30:06;;;;;;;79.53;43.47;;;;;;;15.97;44.97;101249.38;5016049;28;20064;-72
2021/03/25 10:32:41;;;;;;;80.47;45.80;;;;;;;15.65;45.26;101251.66;5019101;28;20516;-72
2021/03/25 10:35:18;;;;;;;87.63;45.55;;;;;;;15.51;45.77;101244.66;5024454;28;20045;-72
2021/03/25 10:37:49;;;;;;;78.40;44.38;;;;;;;15.80;44.92;101244.41;5043751;28;20045;-72
2021/03/25 10:40:23;;;;;;;78.85;42.60;;;;;;;15.83;44.52;101245.06;5022429;28;20065;-71
2021/03/25 10:43:00;;;;;;;75.13;44.40;;;;;;;15.87;44.76;101237.72;5002318;28;20058;-73
2021/03/25 10:45:34;;;;;;;85.13;45.47;;;;;;;15.68;45.36;101238.19;5006755;28;20050;-72
2021/03/25 10:48:30;;;;;;;;;;;;;;;15.12;46.68;101242.94;5022813;28;20056;-72
2021/03/25 10:51:12;;;;;;;75.30;44.90;;;;;;;15.14;46.16;101239.22;5023216;28;20376;-74
2021/03/25 10:53:44;;;;;;;81.25;46.38;;;;;;;15.20;45.93;101235.31;5029395;28;20077;-72
2021/03/25 10:56:27;;;;;;;75.55;44.95;;;;;;;15.27;46.66;101238.41;5034087;28;20057;-72
2021/03/25 10:59:03;;;;;;;80.75;45.00;;;;;;;15.57;45.94;101238.91;5025221;28;20115;-72
2021/03/25 11:01:31;;;;;;;;;;;;;;;15.82;45.60;101237.22;5051598;28;20519;-72
2021/03/25 11:03:58;;;;;;;87.78;44.15;;;;;;;15.81;45.36;101240.84;5021995;28;20002;-72
2021/03/25 11:06:34;;;;;;;78.38;44.33;;;;;;;15.68;45.56;101236.38;5023492;28;20488;-72
2021/03/25 11:09:29;;;;;;;71.63;44.88;;;;;;;15.77;45.20;101236.69;5024067;28;20088;-71
2021/03/25 11:12:30;;;;;;;74.07;43.05;;;;;;;15.48;45.60;101238.69;5054195;28;20056;-73
2021/03/25 11:15:01;;;;;;;89.60;45.42;;;;;;;15.18;46.69;101226.63;5001884;28;20057;-72
2021/03/25 11:17:34;;;;;;;85.32;45.00;;;;;;;15.19;46.51;101223.84;5021778;28;20066;-71
2021/03/25 11:20:05;;;;;;;72.18;42.00;;;;;;;15.25;45.96;101219.06;5001610;28;20058;-76
2021/03/25 11:22:33;;;;;;;69.32;40.33;;;;;;;15.32;45.67;101223.84;5020616;28;20058;-74
2021/03/25 11:25:01;;;;;;;67.47;40.17;;;;;;;15.70;45.09;101215.88;4997018;28;20084;-73
2021/03/25 11:27:28;;;;;;;63.40;35.05;;;;;;;15.25;46.18;101219.06;5011958;28;20708;-74
2021/03/25 11:30:07;;;;;;;66.07;38.63;;;;;;;15.60;44.31;101211.31;5013231;28;20130;-75
2021/03/25 11:32:40;;;;;;;62.53;35.88;;;;;;;15.75;45.05;101212.03;5018062;28;20141;-76
2021/03/25 11:35:34;;;;;;;64.88;37.90;;;;;;;15.66;44.48;101217.03;4994968;28;20058;-74
2021/03/25 11:38:26;;;;;;;62.00;36.45;;;;;;;15.83;44.16;101213.19;5011213;28;20136;-73
2021/03/25 11:40:55;;;;;;;79.35;38.42;;;;;;;15.99;43.11;101206.81;5008233;28;20046;-72
2021/03/25 11:43:43;;;;;;;60.33;35.30;;;;;;;15.78;43.57;101206.53;5009783;28;20054;-74
2021/03/25 11:46:23;;;;;;;70.55;37.28;;;;;;;15.91;43.13;101212.66;5037163;28;20050;-76
2021/03/25 11:49:08;;;;;;;72.20;37.33;;;;;;;16.02;43.14;101202.09;5013006;28;20372;-75
2021/03/25 11:51:40;;;;;;;68.32;36.78;;;;;;;15.90;43.72;101209.16;5011348;28;20061;-74
2021/03/25 11:54:32;;;;;;;73.53;36.55;;;;;;;15.97;42.96;101204.25;5014979;28;20087;-75
2021/03/25 11:57:08;;;;;;;69.63;38.22;;;;;;;16.12;42.18;101205.81;5003337;28;20154;-73
2021/03/25 11:59:39;;;;;;;54.92;33.92;;;;;;;16.36;41.69;101204.94;5001179;28;20053;-71
2021/03/25 12:02:21;;;;;;;70.68;37.05;;;;;;;15.74;42.29;101197.09;5009097;28;20145;-74
2021/03/25 12:04:49;;;;;;;90.45;35.85;;;;;;;15.77;42.48;101199.53;5011730;28;20050;-73
2021/03/25 12:07:19;;;;;;;63.65;32.90;;;;;;;15.89;42.45;101193.31;5008138;28;20405;-73